sensor_id;sensor_type;location;lat;lon;timestamp;temperature;humidity
75387;DHT22;63966;47.914;22.266;2023-08-31T00:01:59;16.41;92.73
75387;DHT22;63966;47.914;22.266;2023-08-31T00:05:03;16.69;91.08
75387;DHT22;63966;47.914;22.266;2023-08-31T00:08:07;16.42;91.88
75387;DHT22;63966;47.914;22.266;2023-08-31T00:11:11;16.21;92.80
75387;DHT22;63966;47.914;22.266;2023-08-31T00:14:14;16.19;92.93
75387;DHT22;63966;47.914;22.266;2023-08-31T00:17:18;16.11;93.21
75387;DHT22;63966;47.914;22.266;2023-08-31T00:20:21;16.04;93.29
75387;DHT22;63966;47.914;22.266;2023-08-31T00:23:24;15.76;94.39
75387;DHT22;63966;47.914;22.266;2023-08-31T00:26:28;15.74;94.74
75387;DHT22;63966;47.914;22.266;2023-08-31T00:29:34;15.73;94.75
75387;DHT22;63966;47.914;22.266;2023-08-31T00:32:38;15.74;94.72
75387;DHT22;63966;47.914;22.266;2023-08-31T00:35:42;15.64;94.59
75387;DHT22;63966;47.914;22.266;2023-08-31T00:38:49;15.60;94.60
75387;DHT22;63966;47.914;22.266;2023-08-31T00:41:53;15.56;94.58
75387;DHT22;63966;47.914;22.266;2023-08-31T00:44:56;15.47;94.29
75387;DHT22;63966;47.914;22.266;2023-08-31T00:48:01;15.33;94.71
75387;DHT22;63966;47.914;22.266;2023-08-31T00:51:05;15.47;94.48
75387;DHT22;63966;47.914;22.266;2023-08-31T00:54:09;15.44;94.86
75387;DHT22;63966;47.914;22.266;2023-08-31T00:57:13;15.80;93.24
75387;DHT22;63966;47.914;22.266;2023-08-31T01:00:16;15.43;94.12
75387;DHT22;63966;47.914;22.266;2023-08-31T01:07:00;15.22;95.66
75387;DHT22;63966;47.914;22.266;2023-08-31T01:10:48;15.25;95.41
75387;DHT22;63966;47.914;22.266;2023-08-31T01:14:02;15.09;95.35
75387;DHT22;63966;47.914;22.266;2023-08-31T01:17:13;14.96;95.33
75387;DHT22;63966;47.914;22.266;2023-08-31T01:20:26;14.91;95.17
75387;DHT22;63966;47.914;22.266;2023-08-31T01:26:54;14.94;95.15
75387;DHT22;63966;47.914;22.266;2023-08-31T01:29:58;14.89;94.96
75387;DHT22;63966;47.914;22.266;2023-08-31T01:33:01;14.88;95.06
75387;DHT22;63966;47.914;22.266;2023-08-31T01:36:12;15.02;94.84
75387;DHT22;63966;47.914;22.266;2023-08-31T01:39:47;15.15;94.18
75387;DHT22;63966;47.914;22.266;2023-08-31T01:42:52;15.02;94.19
75387;DHT22;63966;47.914;22.266;2023-08-31T01:45:57;15.26;93.47
75387;DHT22;63966;47.914;22.266;2023-08-31T01:49:04;14.94;94.51
75387;DHT22;63966;47.914;22.266;2023-08-31T01:52:08;15.06;94.92
75387;DHT22;63966;47.914;22.266;2023-08-31T01:55:12;14.91;95.21
75387;DHT22;63966;47.914;22.266;2023-08-31T01:58:19;15.01;94.03
75387;DHT22;63966;47.914;22.266;2023-08-31T02:01:22;14.83;94.51
75387;DHT22;63966;47.914;22.266;2023-08-31T02:04:26;14.87;94.50
75387;DHT22;63966;47.914;22.266;2023-08-31T02:07:32;14.80;95.01
75387;DHT22;63966;47.914;22.266;2023-08-31T02:10:37;14.99;94.48
75387;DHT22;63966;47.914;22.266;2023-08-31T02:13:41;14.91;94.10
75387;DHT22;63966;47.914;22.266;2023-08-31T02:16:45;14.65;95.32
75387;DHT22;63966;47.914;22.266;2023-08-31T02:19:48;14.57;95.70
75387;DHT22;63966;47.914;22.266;2023-08-31T02:22:52;14.74;95.82
75387;DHT22;63966;47.914;22.266;2023-08-31T02:25:55;14.85;94.70
75387;DHT22;63966;47.914;22.266;2023-08-31T02:28:59;14.64;95.28
75387;DHT22;63966;47.914;22.266;2023-08-31T02:32:06;14.91;94.50
75387;DHT22;63966;47.914;22.266;2023-08-31T02:35:09;14.89;94.13
75387;DHT22;63966;47.914;22.266;2023-08-31T02:38:12;14.96;94.44
75387;DHT22;63966;47.914;22.266;2023-08-31T02:41:16;15.01;93.58
75387;DHT22;63966;47.914;22.266;2023-08-31T02:44:20;14.80;94.36
75387;DHT22;63966;47.914;22.266;2023-08-31T02:47:24;14.67;95.20
75387;DHT22;63966;47.914;22.266;2023-08-31T02:50:28;14.77;94.88
75387;DHT22;63966;47.914;22.266;2023-08-31T02:53:31;14.73;95.44
75387;DHT22;63966;47.914;22.266;2023-08-31T02:56:35;14.96;94.64
75387;DHT22;63966;47.914;22.266;2023-08-31T02:59:38;15.11;93.83
75387;DHT22;63966;47.914;22.266;2023-08-31T03:02:42;14.99;94.38
75387;DHT22;63966;47.914;22.266;2023-08-31T03:05:47;14.98;94.44
75387;DHT22;63966;47.914;22.266;2023-08-31T03:08:50;15.11;94.72
75387;DHT22;63966;47.914;22.266;2023-08-31T03:11:54;15.09;94.60
75387;DHT22;63966;47.914;22.266;2023-08-31T03:14:57;15.23;94.52
75387;DHT22;63966;47.914;22.266;2023-08-31T03:18:01;15.29;94.07
75387;DHT22;63966;47.914;22.266;2023-08-31T03:21:05;15.32;94.09
75387;DHT22;63966;47.914;22.266;2023-08-31T03:24:08;15.42;93.96
75387;DHT22;63966;47.914;22.266;2023-08-31T03:27:12;15.39;94.00
75387;DHT22;63966;47.914;22.266;2023-08-31T03:30:15;15.36;94.12
75387;DHT22;63966;47.914;22.266;2023-08-31T03:33:19;15.42;93.97
75387;DHT22;63966;47.914;22.266;2023-08-31T03:36:22;15.38;94.47
75387;DHT22;63966;47.914;22.266;2023-08-31T03:39:27;15.29;94.75
75387;DHT22;63966;47.914;22.266;2023-08-31T03:42:30;15.38;94.56
75387;DHT22;63966;47.914;22.266;2023-08-31T03:45:34;15.33;94.07
75387;DHT22;63966;47.914;22.266;2023-08-31T03:48:37;15.29;94.50
75387;DHT22;63966;47.914;22.266;2023-08-31T03:51:41;15.31;94.48
75387;DHT22;63966;47.914;22.266;2023-08-31T03:54:44;15.28;94.62
75387;DHT22;63966;47.914;22.266;2023-08-31T03:57:48;15.38;94.77
75387;DHT22;63966;47.914;22.266;2023-08-31T04:00:57;15.47;94.37
75387;DHT22;63966;47.914;22.266;2023-08-31T04:04:00;15.53;94.28
75387;DHT22;63966;47.914;22.266;2023-08-31T04:07:04;15.47;94.25
75387;DHT22;63966;47.914;22.266;2023-08-31T04:10:08;15.53;94.22
75387;DHT22;63966;47.914;22.266;2023-08-31T04:13:11;15.59;94.01
75387;DHT22;63966;47.914;22.266;2023-08-31T04:16:15;15.54;94.05
75387;DHT22;63966;47.914;22.266;2023-08-31T04:19:19;15.74;93.53
75387;DHT22;63966;47.914;22.266;2023-08-31T04:22:22;15.63;93.59
75387;DHT22;63966;47.914;22.266;2023-08-31T04:25:28;15.66;93.82
75387;DHT22;63966;47.914;22.266;2023-08-31T04:28:31;15.64;93.75
75387;DHT22;63966;47.914;22.266;2023-08-31T04:31:35;15.56;94.39
75387;DHT22;63966;47.914;22.266;2023-08-31T04:34:38;15.53;94.65
75387;DHT22;63966;47.914;22.266;2023-08-31T04:37:42;15.61;94.43
75387;DHT22;63966;47.914;22.266;2023-08-31T04:40:45;15.79;93.72
75387;DHT22;63966;47.914;22.266;2023-08-31T04:43:48;15.76;93.71
75387;DHT22;63966;47.914;22.266;2023-08-31T04:46:52;16.02;93.18
75387;DHT22;63966;47.914;22.266;2023-08-31T04:49:55;16.15;92.52
75387;DHT22;63966;47.914;22.266;2023-08-31T04:53:00;16.21;92.43
75387;DHT22;63966;47.914;22.266;2023-08-31T04:56:03;16.45;91.60
75387;DHT22;63966;47.914;22.266;2023-08-31T04:59:07;16.51;91.17
75387;DHT22;63966;47.914;22.266;2023-08-31T05:02:10;16.62;90.96
75387;DHT22;63966;47.914;22.266;2023-08-31T05:05:13;16.65;91.10
75387;DHT22;63966;47.914;22.266;2023-08-31T05:08:17;16.59;90.89
75387;DHT22;63966;47.914;22.266;2023-08-31T05:11:20;16.46;91.66
75387;DHT22;63966;47.914;22.266;2023-08-31T05:14:24;16.48;91.72
75387;DHT22;63966;47.914;22.266;2023-08-31T05:17:28;16.55;91.68
75387;DHT22;63966;47.914;22.266;2023-08-31T05:20:33;16.70;91.03
75387;DHT22;63966;47.914;22.266;2023-08-31T05:23:36;16.72;91.44
75387;DHT22;63966;47.914;22.266;2023-08-31T05:26:40;16.79;91.10
75387;DHT22;63966;47.914;22.266;2023-08-31T05:29:44;16.88;90.80
75387;DHT22;63966;47.914;22.266;2023-08-31T05:32:47;16.81;91.02
75387;DHT22;63966;47.914;22.266;2023-08-31T05:35:51;16.91;90.91
75387;DHT22;63966;47.914;22.266;2023-08-31T05:38:54;16.94;90.79
75387;DHT22;63966;47.914;22.266;2023-08-31T05:41:57;17.03;91.16
75387;DHT22;63966;47.914;22.266;2023-08-31T05:45:02;17.14;90.38
75387;DHT22;63966;47.914;22.266;2023-08-31T05:48:06;17.35;90.27
75387;DHT22;63966;47.914;22.266;2023-08-31T05:51:10;17.55;89.41
75387;DHT22;63966;47.914;22.266;2023-08-31T05:54:13;17.62;88.49
75387;DHT22;63966;47.914;22.266;2023-08-31T05:57:19;18.20;87.26
75387;DHT22;63966;47.914;22.266;2023-08-31T06:00:23;21.24;76.27
75387;DHT22;63966;47.914;22.266;2023-08-31T06:03:26;22.53;70.12
75387;DHT22;63966;47.914;22.266;2023-08-31T06:06:30;22.24;70.28
75387;DHT22;63966;47.914;22.266;2023-08-31T06:09:35;22.99;69.22
75387;DHT22;63966;47.914;22.266;2023-08-31T06:12:38;24.44;64.51
75387;DHT22;63966;47.914;22.266;2023-08-31T06:15:42;24.13;64.59
75387;DHT22;63966;47.914;22.266;2023-08-31T06:18:45;25.62;59.70
75387;DHT22;63966;47.914;22.266;2023-08-31T06:21:49;24.82;62.14
75387;DHT22;63966;47.914;22.266;2023-08-31T06:24:52;24.72;62.02
75387;DHT22;63966;47.914;22.266;2023-08-31T06:27:56;26.68;56.99
75387;DHT22;63966;47.914;22.266;2023-08-31T06:31:00;27.03;56.23
75387;DHT22;63966;47.914;22.266;2023-08-31T06:34:03;26.55;57.23
75387;DHT22;63966;47.914;22.266;2023-08-31T06:37:09;25.87;58.77
75387;DHT22;63966;47.914;22.266;2023-08-31T06:40:13;25.64;59.64
75387;DHT22;63966;47.914;22.266;2023-08-31T06:43:16;25.97;58.72
75387;DHT22;63966;47.914;22.266;2023-08-31T06:46:20;26.12;58.16
75387;DHT22;63966;47.914;22.266;2023-08-31T06:49:27;25.11;61.05
75387;DHT22;63966;47.914;22.266;2023-08-31T06:52:31;24.99;61.13
75387;DHT22;63966;47.914;22.266;2023-08-31T06:55:35;24.87;61.83
75387;DHT22;63966;47.914;22.266;2023-08-31T06:58:38;24.92;61.60
75387;DHT22;63966;47.914;22.266;2023-08-31T07:01:42;24.99;61.04
75387;DHT22;63966;47.914;22.266;2023-08-31T07:04:45;24.99;60.89
75387;DHT22;63966;47.914;22.266;2023-08-31T07:07:49;24.85;60.97
75387;DHT22;63966;47.914;22.266;2023-08-31T07:10:52;26.14;57.60
75387;DHT22;63966;47.914;22.266;2023-08-31T07:13:56;26.59;56.06
75387;DHT22;63966;47.914;22.266;2023-08-31T07:17:00;26.48;55.72
75387;DHT22;63966;47.914;22.266;2023-08-31T07:20:04;26.25;56.36
75387;DHT22;63966;47.914;22.266;2023-08-31T07:23:09;26.60;56.26
75387;DHT22;63966;47.914;22.266;2023-08-31T07:26:13;27.89;52.71
75387;DHT22;63966;47.914;22.266;2023-08-31T07:29:17;29.45;48.36
75387;DHT22;63966;47.914;22.266;2023-08-31T07:32:21;30.05;46.27
75387;DHT22;63966;47.914;22.266;2023-08-31T07:35:25;30.12;46.52
75387;DHT22;63966;47.914;22.266;2023-08-31T07:38:30;31.22;44.66
75387;DHT22;63966;47.914;22.266;2023-08-31T07:41:34;32.79;41.72
75387;DHT22;63966;47.914;22.266;2023-08-31T07:44:37;32.31;41.58
75387;DHT22;63966;47.914;22.266;2023-08-31T07:47:40;32.17;42.45
75387;DHT22;63966;47.914;22.266;2023-08-31T07:50:44;31.96;42.86
75387;DHT22;63966;47.914;22.266;2023-08-31T07:53:48;33.25;40.55
75387;DHT22;63966;47.914;22.266;2023-08-31T07:56:51;31.77;42.50
75387;DHT22;63966;47.914;22.266;2023-08-31T07:59:54;31.43;43.10
75387;DHT22;63966;47.914;22.266;2023-08-31T08:02:58;32.31;41.75
75387;DHT22;63966;47.914;22.266;2023-08-31T08:06:01;33.27;39.59
75387;DHT22;63966;47.914;22.266;2023-08-31T08:09:06;33.63;38.92
75387;DHT22;63966;47.914;22.266;2023-08-31T08:12:09;34.66;36.77
75387;DHT22;63966;47.914;22.266;2023-08-31T08:15:13;34.26;37.42
75387;DHT22;63966;47.914;22.266;2023-08-31T08:18:17;31.69;41.89
75387;DHT22;63966;47.914;22.266;2023-08-31T08:21:20;32.99;39.44
75387;DHT22;63966;47.914;22.266;2023-08-31T08:24:24;30.80;43.04
75387;DHT22;63966;47.914;22.266;2023-08-31T08:27:27;31.53;41.76
75387;DHT22;63966;47.914;22.266;2023-08-31T08:30:31;29.61;44.17
75387;DHT22;63966;47.914;22.266;2023-08-31T08:33:34;29.45;45.55
75387;DHT22;63966;47.914;22.266;2023-08-31T08:36:38;29.10;47.20
75387;DHT22;63966;47.914;22.266;2023-08-31T08:39:41;28.81;47.86
75387;DHT22;63966;47.914;22.266;2023-08-31T08:42:47;29.27;47.07
75387;DHT22;63966;47.914;22.266;2023-08-31T08:45:52;29.47;46.87
75387;DHT22;63966;47.914;22.266;2023-08-31T08:48:56;29.17;47.13
75387;DHT22;63966;47.914;22.266;2023-08-31T08:52:00;28.51;48.73
75387;DHT22;63966;47.914;22.266;2023-08-31T08:55:05;28.68;48.33
75387;DHT22;63966;47.914;22.266;2023-08-31T08:58:09;29.81;45.50
75387;DHT22;63966;47.914;22.266;2023-08-31T09:01:13;30.37;43.95
75387;DHT22;63966;47.914;22.266;2023-08-31T09:04:16;30.22;44.06
75387;DHT22;63966;47.914;22.266;2023-08-31T09:07:20;30.55;43.45
75387;DHT22;63966;47.914;22.266;2023-08-31T09:10:24;30.53;44.03
75387;DHT22;63966;47.914;22.266;2023-08-31T09:13:35;30.01;44.63
75387;DHT22;63966;47.914;22.266;2023-08-31T09:16:38;29.58;45.20
75387;DHT22;63966;47.914;22.266;2023-08-31T09:19:42;29.80;45.17
75387;DHT22;63966;47.914;22.266;2023-08-31T09:22:46;29.47;45.25
75387;DHT22;63966;47.914;22.266;2023-08-31T09:25:53;29.54;45.52
75387;DHT22;63966;47.914;22.266;2023-08-31T09:28:57;29.73;44.88
75387;DHT22;63966;47.914;22.266;2023-08-31T09:32:00;29.40;45.80
75387;DHT22;63966;47.914;22.266;2023-08-31T09:35:09;28.55;48.34
75387;DHT22;63966;47.914;22.266;2023-08-31T09:38:23;28.37;48.62
75387;DHT22;63966;47.914;22.266;2023-08-31T09:41:27;27.20;51.39
75387;DHT22;63966;47.914;22.266;2023-08-31T09:44:30;27.15;51.24
75387;DHT22;63966;47.914;22.266;2023-08-31T09:47:34;26.46;53.26
75387;DHT22;63966;47.914;22.266;2023-08-31T09:50:38;25.85;55.62
75387;DHT22;63966;47.914;22.266;2023-08-31T09:53:42;25.62;56.72
75387;DHT22;63966;47.914;22.266;2023-08-31T09:56:49;25.69;56.64
75387;DHT22;63966;47.914;22.266;2023-08-31T09:59:52;25.56;56.86
75387;DHT22;63966;47.914;22.266;2023-08-31T10:03:02;25.45;57.75
75387;DHT22;63966;47.914;22.266;2023-08-31T10:06:07;24.95;58.50
75387;DHT22;63966;47.914;22.266;2023-08-31T10:09:14;24.85;57.53
75387;DHT22;63966;47.914;22.266;2023-08-31T10:12:19;24.30;59.70
75387;DHT22;63966;47.914;22.266;2023-08-31T10:15:23;24.17;60.27
75387;DHT22;63966;47.914;22.266;2023-08-31T10:18:29;24.27;60.21
75387;DHT22;63966;47.914;22.266;2023-08-31T10:21:33;24.23;60.30
75387;DHT22;63966;47.914;22.266;2023-08-31T10:24:59;24.19;60.68
75387;DHT22;63966;47.914;22.266;2023-08-31T10:28:17;24.33;60.81
75387;DHT22;63966;47.914;22.266;2023-08-31T10:31:21;24.78;60.50
75387;DHT22;63966;47.914;22.266;2023-08-31T10:34:36;25.62;58.91
75387;DHT22;63966;47.914;22.266;2023-08-31T10:37:42;26.25;56.43
75387;DHT22;63966;47.914;22.266;2023-08-31T10:41:21;25.71;57.17
75387;DHT22;63966;47.914;22.266;2023-08-31T10:44:26;25.97;56.64
75387;DHT22;63966;47.914;22.266;2023-08-31T10:47:42;25.74;55.61
75387;DHT22;63966;47.914;22.266;2023-08-31T10:50:48;25.59;56.73
75387;DHT22;63966;47.914;22.266;2023-08-31T10:53:52;25.18;56.87
75387;DHT22;63966;47.914;22.266;2023-08-31T11:00:04;24.95;58.39
75387;DHT22;63966;47.914;22.266;2023-08-31T11:03:12;25.33;56.25
75387;DHT22;63966;47.914;22.266;2023-08-31T11:06:16;25.12;57.51
75387;DHT22;63966;47.914;22.266;2023-08-31T11:09:22;24.94;57.34
75387;DHT22;63966;47.914;22.266;2023-08-31T11:12:25;24.87;56.20
75387;DHT22;63966;47.914;22.266;2023-08-31T11:15:28;24.36;58.40
75387;DHT22;63966;47.914;22.266;2023-08-31T11:18:37;24.67;57.03
75387;DHT22;63966;47.914;22.266;2023-08-31T11:21:41;24.60;58.20
75387;DHT22;63966;47.914;22.266;2023-08-31T11:24:44;24.91;56.89
75387;DHT22;63966;47.914;22.266;2023-08-31T11:27:58;25.09;57.46
75387;DHT22;63966;47.914;22.266;2023-08-31T11:31:02;26.55;54.28
75387;DHT22;63966;47.914;22.266;2023-08-31T11:34:08;27.27;52.14
75387;DHT22;63966;47.914;22.266;2023-08-31T11:37:15;28.40;49.11
75387;DHT22;63966;47.914;22.266;2023-08-31T11:40:19;28.71;48.51
75387;DHT22;63966;47.914;22.266;2023-08-31T11:43:22;28.64;48.54
75387;DHT22;63966;47.914;22.266;2023-08-31T11:46:26;28.78;47.82
75387;DHT22;63966;47.914;22.266;2023-08-31T11:49:30;28.76;47.62
75387;DHT22;63966;47.914;22.266;2023-08-31T11:52:34;28.98;47.81
75387;DHT22;63966;47.914;22.266;2023-08-31T11:55:52;28.75;47.94
75387;DHT22;63966;47.914;22.266;2023-08-31T11:58:56;28.25;49.28
75387;DHT22;63966;47.914;22.266;2023-08-31T12:02:08;28.17;49.01
75387;DHT22;63966;47.914;22.266;2023-08-31T12:05:11;27.99;49.36
75387;DHT22;63966;47.914;22.266;2023-08-31T12:08:15;28.33;49.16
75387;DHT22;63966;47.914;22.266;2023-08-31T12:11:21;28.45;48.71
75387;DHT22;63966;47.914;22.266;2023-08-31T12:14:27;28.82;47.88
75387;DHT22;63966;47.914;22.266;2023-08-31T12:17:30;28.68;47.97
75387;DHT22;63966;47.914;22.266;2023-08-31T12:20:34;28.36;48.50
75387;DHT22;63966;47.914;22.266;2023-08-31T12:23:44;28.33;48.46
75387;DHT22;63966;47.914;22.266;2023-08-31T12:26:47;27.41;50.75
75387;DHT22;63966;47.914;22.266;2023-08-31T12:29:51;27.48;50.75
75387;DHT22;63966;47.914;22.266;2023-08-31T12:32:54;26.59;53.00
75387;DHT22;63966;47.914;22.266;2023-08-31T12:35:57;26.50;52.98
75387;DHT22;63966;47.914;22.266;2023-08-31T12:39:01;25.93;54.92
75387;DHT22;63966;47.914;22.266;2023-08-31T12:42:05;25.19;55.47
75387;DHT22;63966;47.914;22.266;2023-08-31T12:45:22;24.36;57.25
75387;DHT22;63966;47.914;22.266;2023-08-31T12:48:26;24.71;58.24
75387;DHT22;63966;47.914;22.266;2023-08-31T12:51:30;24.71;56.96
75387;DHT22;63966;47.914;22.266;2023-08-31T12:54:34;24.81;57.75
75387;DHT22;63966;47.914;22.266;2023-08-31T12:57:37;24.49;59.17
75387;DHT22;63966;47.914;22.266;2023-08-31T13:00:40;24.65;58.44
75387;DHT22;63966;47.914;22.266;2023-08-31T13:03:47;24.50;58.31
75387;DHT22;63966;47.914;22.266;2023-08-31T13:06:50;24.64;57.32
75387;DHT22;63966;47.914;22.266;2023-08-31T13:09:54;24.67;58.10
75387;DHT22;63966;47.914;22.266;2023-08-31T13:12:57;24.57;58.50
75387;DHT22;63966;47.914;22.266;2023-08-31T13:16:00;24.39;59.38
75387;DHT22;63966;47.914;22.266;2023-08-31T13:19:04;24.36;58.98
75387;DHT22;63966;47.914;22.266;2023-08-31T13:22:07;24.14;60.36
75387;DHT22;63966;47.914;22.266;2023-08-31T13:25:11;24.36;59.81
75387;DHT22;63966;47.914;22.266;2023-08-31T13:28:15;24.30;58.50
75387;DHT22;63966;47.914;22.266;2023-08-31T13:31:18;24.27;59.83
75387;DHT22;63966;47.914;22.266;2023-08-31T13:34:22;24.44;60.09
75387;DHT22;63966;47.914;22.266;2023-08-31T13:37:25;24.12;60.89
75387;DHT22;63966;47.914;22.266;2023-08-31T13:40:29;24.12;61.56
75387;DHT22;63966;47.914;22.266;2023-08-31T13:43:33;24.05;61.10
75387;DHT22;63966;47.914;22.266;2023-08-31T13:46:36;23.89;61.11
75387;DHT22;63966;47.914;22.266;2023-08-31T13:49:40;23.98;61.06
75387;DHT22;63966;47.914;22.266;2023-08-31T17:45:23;19.95;77.63
75387;DHT22;63966;47.914;22.266;2023-08-31T17:48:27;19.84;77.58
75387;DHT22;63966;47.914;22.266;2023-08-31T17:51:32;19.82;77.86
75387;DHT22;63966;47.914;22.266;2023-08-31T17:54:35;19.72;78.72
75387;DHT22;63966;47.914;22.266;2023-08-31T17:57:39;19.65;79.06
75387;DHT22;63966;47.914;22.266;2023-08-31T18:00:42;19.60;79.48
75387;DHT22;63966;47.914;22.266;2023-08-31T18:03:47;19.55;78.35
75387;DHT22;63966;47.914;22.266;2023-08-31T18:06:51;19.47;78.74
75387;DHT22;63966;47.914;22.266;2023-08-31T18:09:57;19.31;78.54
75387;DHT22;63966;47.914;22.266;2023-08-31T18:13:00;19.26;79.19
75387;DHT22;63966;47.914;22.266;2023-08-31T18:16:04;19.22;79.31
75387;DHT22;63966;47.914;22.266;2023-08-31T18:19:07;19.12;79.55
75387;DHT22;63966;47.914;22.266;2023-08-31T18:22:12;19.20;79.49
75387;DHT22;63966;47.914;22.266;2023-08-31T18:25:16;19.16;79.11
75387;DHT22;63966;47.914;22.266;2023-08-31T18:28:20;19.09;78.71
75387;DHT22;63966;47.914;22.266;2023-08-31T18:31:23;19.20;78.10
75387;DHT22;63966;47.914;22.266;2023-08-31T18:34:28;19.15;78.12
75387;DHT22;63966;47.914;22.266;2023-08-31T18:37:32;19.24;77.95
75387;DHT22;63966;47.914;22.266;2023-08-31T18:40:36;19.30;78.31
75387;DHT22;63966;47.914;22.266;2023-08-31T18:43:39;19.13;78.38
75387;DHT22;63966;47.914;22.266;2023-08-31T18:46:46;19.22;77.81
75387;DHT22;63966;47.914;22.266;2023-08-31T18:49:50;19.36;77.79
75387;DHT22;63966;47.914;22.266;2023-08-31T18:52:54;19.31;78.15
75387;DHT22;63966;47.914;22.266;2023-08-31T18:56:01;19.41;78.01
75387;DHT22;63966;47.914;22.266;2023-08-31T18:59:07;19.51;77.76
75387;DHT22;63966;47.914;22.266;2023-08-31T19:02:11;19.64;77.75
75387;DHT22;63966;47.914;22.266;2023-08-31T19:05:15;19.50;76.63
75387;DHT22;63966;47.914;22.266;2023-08-31T19:08:18;19.53;77.03
75387;DHT22;63966;47.914;22.266;2023-08-31T19:11:22;19.46;77.04
75387;DHT22;63966;47.914;22.266;2023-08-31T19:14:25;19.36;76.38
75387;DHT22;63966;47.914;22.266;2023-08-31T19:17:29;19.16;77.58
75387;DHT22;63966;47.914;22.266;2023-08-31T19:20:33;19.06;78.50
75387;DHT22;63966;47.914;22.266;2023-08-31T19:23:37;19.00;78.84
75387;DHT22;63966;47.914;22.266;2023-08-31T19:26:40;18.67;81.21
75387;DHT22;63966;47.914;22.266;2023-08-31T19:29:45;18.81;79.83
75387;DHT22;63966;47.914;22.266;2023-08-31T19:32:48;18.95;79.70
75387;DHT22;63966;47.914;22.266;2023-08-31T19:35:52;18.92;80.22
75387;DHT22;63966;47.914;22.266;2023-08-31T19:39:01;19.03;80.28
75387;DHT22;63966;47.914;22.266;2023-08-31T19:42:05;18.86;80.83
75387;DHT22;63966;47.914;22.266;2023-08-31T19:45:09;18.92;81.11
75387;DHT22;63966;47.914;22.266;2023-08-31T19:48:12;18.95;81.19
75387;DHT22;63966;47.914;22.266;2023-08-31T19:51:18;18.89;81.22
75387;DHT22;63966;47.914;22.266;2023-08-31T19:54:21;18.51;82.67
75387;DHT22;63966;47.914;22.266;2023-08-31T19:57:25;18.47;83.18
75387;DHT22;63966;47.914;22.266;2023-08-31T20:00:28;18.67;82.17
75387;DHT22;63966;47.914;22.266;2023-08-31T20:03:33;18.44;82.94
75387;DHT22;63966;47.914;22.266;2023-08-31T20:06:41;18.52;82.74
75387;DHT22;63966;47.914;22.266;2023-08-31T20:09:45;18.44;83.72
75387;DHT22;63966;47.914;22.266;2023-08-31T20:12:49;18.38;83.41
75387;DHT22;63966;47.914;22.266;2023-08-31T20:15:58;18.31;83.81
75387;DHT22;63966;47.914;22.266;2023-08-31T20:19:02;18.28;85.26
75387;DHT22;63966;47.914;22.266;2023-08-31T20:22:06;18.48;83.46
75387;DHT22;63966;47.914;22.266;2023-08-31T20:25:10;18.24;84.31
75387;DHT22;63966;47.914;22.266;2023-08-31T20:28:16;18.18;84.67
75387;DHT22;63966;47.914;22.266;2023-08-31T20:31:22;17.93;85.84
75387;DHT22;63966;47.914;22.266;2023-08-31T20:34:26;17.89;85.98
75387;DHT22;63966;47.914;22.266;2023-08-31T20:37:31;17.78;86.20
75387;DHT22;63966;47.914;22.266;2023-08-31T20:40:38;17.58;87.01
75387;DHT22;63966;47.914;22.266;2023-08-31T20:43:42;17.46;87.44
75387;DHT22;63966;47.914;22.266;2023-08-31T20:46:46;17.42;87.69
75387;DHT22;63966;47.914;22.266;2023-08-31T20:49:50;17.34;87.98
75387;DHT22;63966;47.914;22.266;2023-08-31T20:52:53;17.23;88.27
75387;DHT22;63966;47.914;22.266;2023-08-31T20:56:10;17.13;88.81
75387;DHT22;63966;47.914;22.266;2023-08-31T20:59:14;17.07;89.06
75387;DHT22;63966;47.914;22.266;2023-08-31T21:02:18;17.04;88.97
75387;DHT22;63966;47.914;22.266;2023-08-31T21:05:21;16.90;89.50
75387;DHT22;63966;47.914;22.266;2023-08-31T21:08:25;16.79;90.05
75387;DHT22;63966;47.914;22.266;2023-08-31T21:11:29;16.70;89.94
75387;DHT22;63966;47.914;22.266;2023-08-31T21:14:33;16.69;89.84
75387;DHT22;63966;47.914;22.266;2023-08-31T21:17:36;16.56;89.94
75387;DHT22;63966;47.914;22.266;2023-08-31T21:20:42;16.48;90.58
75387;DHT22;63966;47.914;22.266;2023-08-31T21:23:45;16.44;90.54
75387;DHT22;63966;47.914;22.266;2023-08-31T21:26:49;16.33;90.01
75387;DHT22;63966;47.914;22.266;2023-08-31T21:29:52;16.48;90.02
75387;DHT22;63966;47.914;22.266;2023-08-31T21:32:55;16.30;90.39
75387;DHT22;63966;47.914;22.266;2023-08-31T21:36:02;16.22;90.50
75387;DHT22;63966;47.914;22.266;2023-08-31T21:39:06;16.21;90.67
75387;DHT22;63966;47.914;22.266;2023-08-31T21:42:10;16.08;91.20
75387;DHT22;63966;47.914;22.266;2023-08-31T21:45:13;15.94;91.53
75387;DHT22;63966;47.914;22.266;2023-08-31T21:48:16;15.89;91.42
75387;DHT22;63966;47.914;22.266;2023-08-31T21:51:20;15.81;91.47
75387;DHT22;63966;47.914;22.266;2023-08-31T21:54:24;15.74;91.65
75387;DHT22;63966;47.914;22.266;2023-08-31T21:57:28;15.63;91.59
75387;DHT22;63966;47.914;22.266;2023-08-31T22:00:32;15.69;91.00
75387;DHT22;63966;47.914;22.266;2023-08-31T22:03:36;15.70;91.01
75387;DHT22;63966;47.914;22.266;2023-08-31T22:06:40;15.60;90.85
75387;DHT22;63966;47.914;22.266;2023-08-31T22:09:44;15.53;91.02
75387;DHT22;63966;47.914;22.266;2023-08-31T22:12:51;15.33;91.43
75387;DHT22;63966;47.914;22.266;2023-08-31T22:15:55;15.16;92.79
75387;DHT22;63966;47.914;22.266;2023-08-31T22:18:59;15.13;92.60
75387;DHT22;63966;47.914;22.266;2023-08-31T22:22:03;15.06;92.81
75387;DHT22;63966;47.914;22.266;2023-08-31T22:25:07;15.13;92.27
75387;DHT22;63966;47.914;22.266;2023-08-31T22:28:10;15.15;92.43
75387;DHT22;63966;47.914;22.266;2023-08-31T22:31:14;15.22;92.29
75387;DHT22;63966;47.914;22.266;2023-08-31T22:34:18;15.19;92.28
75387;DHT22;63966;47.914;22.266;2023-08-31T22:37:22;15.16;92.52
75387;DHT22;63966;47.914;22.266;2023-08-31T22:40:28;15.15;92.25
75387;DHT22;63966;47.914;22.266;2023-08-31T22:43:32;15.05;92.48
75387;DHT22;63966;47.914;22.266;2023-08-31T22:46:38;15.08;91.89
75387;DHT22;63966;47.914;22.266;2023-08-31T22:49:41;15.08;91.65
75387;DHT22;63966;47.914;22.266;2023-08-31T22:52:45;14.98;92.26
75387;DHT22;63966;47.914;22.266;2023-08-31T22:55:49;14.89;92.13
75387;DHT22;63966;47.914;22.266;2023-08-31T22:58:52;14.87;92.42
75387;DHT22;63966;47.914;22.266;2023-08-31T23:01:56;14.91;92.06
75387;DHT22;63966;47.914;22.266;2023-08-31T23:04:59;14.88;91.65
75387;DHT22;63966;47.914;22.266;2023-08-31T23:08:03;14.91;91.40
75387;DHT22;63966;47.914;22.266;2023-08-31T23:11:07;14.95;90.56